sensor_id;sensor_type;location;lat;lon;timestamp;pressure;altitude;pressure_sealevel;temperature
20733;BMP180;10527;52.124;5.196;2023-02-15T00:00:06;102775.00;;;15.50
20733;BMP180;10527;52.124;5.196;2023-02-15T00:02:34;102782.00;;;15.50
20733;BMP180;10527;52.124;5.196;2023-02-15T00:05:08;102783.00;;;15.40
20733;BMP180;10527;52.124;5.196;2023-02-15T00:07:37;102781.00;;;15.40
20733;BMP180;10527;52.124;5.196;2023-02-15T00:10:08;102787.00;;;15.40
20733;BMP180;10527;52.124;5.196;2023-02-15T00:12:35;102778.00;;;15.40
20733;BMP180;10527;52.124;5.196;2023-02-15T00:15:02;102781.00;;;15.30
20733;BMP180;10527;52.124;5.196;2023-02-15T00:17:29;102777.00;;;15.30
20733;BMP180;10527;52.124;5.196;2023-02-15T00:19:56;102782.00;;;15.30
20733;BMP180;10527;52.124;5.196;2023-02-15T00:22:26;102773.00;;;15.20
20733;BMP180;10527;52.124;5.196;2023-02-15T00:24:53;102767.00;;;15.20
20733;BMP180;10527;52.124;5.196;2023-02-15T00:27:19;102763.00;;;15.20
20733;BMP180;10527;52.124;5.196;2023-02-15T00:29:47;102768.00;;;15.10
20733;BMP180;10527;52.124;5.196;2023-02-15T00:32:16;102758.00;;;15.10
20733;BMP180;10527;52.124;5.196;2023-02-15T00:34:42;102755.00;;;15.10
20733;BMP180;10527;52.124;5.196;2023-02-15T00:37:09;102746.00;;;15.10
20733;BMP180;10527;52.124;5.196;2023-02-15T00:39:36;102752.00;;;15.10
20733;BMP180;10527;52.124;5.196;2023-02-15T00:42:03;102757.00;;;15.10
20733;BMP180;10527;52.124;5.196;2023-02-15T00:44:30;102764.00;;;15.00
20733;BMP180;10527;52.124;5.196;2023-02-15T00:46:57;102751.00;;;15.00
20733;BMP180;10527;52.124;5.196;2023-02-15T00:49:23;102747.00;;;15.00
20733;BMP180;10527;52.124;5.196;2023-02-15T00:51:50;102744.00;;;15.00
20733;BMP180;10527;52.124;5.196;2023-02-15T00:54:17;102746.00;;;14.90
20733;BMP180;10527;52.124;5.196;2023-02-15T00:56:47;102750.00;;;14.90
20733;BMP180;10527;52.124;5.196;2023-02-15T00:59:13;102737.00;;;14.90
20733;BMP180;10527;52.124;5.196;2023-02-15T01:01:43;102739.00;;;14.90
20733;BMP180;10527;52.124;5.196;2023-02-15T01:04:10;102746.00;;;14.80
20733;BMP180;10527;52.124;5.196;2023-02-15T01:06:37;102751.00;;;14.80
20733;BMP180;10527;52.124;5.196;2023-02-15T01:09:04;102743.00;;;14.80
20733;BMP180;10527;52.124;5.196;2023-02-15T01:11:33;102744.00;;;14.70
20733;BMP180;10527;52.124;5.196;2023-02-15T01:14:00;102748.00;;;14.70
20733;BMP180;10527;52.124;5.196;2023-02-15T01:16:28;102736.00;;;14.70
20733;BMP180;10527;52.124;5.196;2023-02-15T01:18:55;102739.00;;;14.70
20733;BMP180;10527;52.124;5.196;2023-02-15T01:21:25;102731.00;;;14.70
20733;BMP180;10527;52.124;5.196;2023-02-15T01:23:52;102734.00;;;14.70
20733;BMP180;10527;52.124;5.196;2023-02-15T01:26:19;102732.00;;;14.60
20733;BMP180;10527;52.124;5.196;2023-02-15T01:28:46;102734.00;;;14.60
20733;BMP180;10527;52.124;5.196;2023-02-15T01:31:20;102728.00;;;14.60
20733;BMP180;10527;52.124;5.196;2023-02-15T01:33:48;102714.00;;;14.50
20733;BMP180;10527;52.124;5.196;2023-02-15T01:36:15;102710.00;;;14.50
20733;BMP180;10527;52.124;5.196;2023-02-15T01:38:49;102707.00;;;14.50
20733;BMP180;10527;52.124;5.196;2023-02-15T01:41:15;102706.00;;;14.40
20733;BMP180;10527;52.124;5.196;2023-02-15T01:44:46;102704.00;;;14.40
20733;BMP180;10527;52.124;5.196;2023-02-15T01:47:29;102706.00;;;14.40
20733;BMP180;10527;52.124;5.196;2023-02-15T01:50:37;102698.00;;;14.40
20733;BMP180;10527;52.124;5.196;2023-02-15T01:53:15;102694.00;;;14.30
20733;BMP180;10527;52.124;5.196;2023-02-15T01:55:57;102694.00;;;14.30
20733;BMP180;10527;52.124;5.196;2023-02-15T01:58:29;102693.00;;;14.30
20733;BMP180;10527;52.124;5.196;2023-02-15T02:01:00;102688.00;;;14.30
20733;BMP180;10527;52.124;5.196;2023-02-15T02:06:39;102687.00;;;14.20
20733;BMP180;10527;52.124;5.196;2023-02-15T02:09:07;102676.00;;;14.20
20733;BMP180;10527;52.124;5.196;2023-02-15T02:11:35;102683.00;;;14.20
20733;BMP180;10527;52.124;5.196;2023-02-15T02:14:01;102681.00;;;14.10
20733;BMP180;10527;52.124;5.196;2023-02-15T02:17:06;102670.00;;;14.10
20733;BMP180;10527;52.124;5.196;2023-02-15T02:34:59;102653.00;;;14.00
20733;BMP180;10527;52.124;5.196;2023-02-15T02:37:55;102654.00;;;14.00
20733;BMP180;10527;52.124;5.196;2023-02-15T02:43:35;102658.00;;;13.90
20733;BMP180;10527;52.124;5.196;2023-02-15T02:46:30;102656.00;;;13.90
20733;BMP180;10527;52.124;5.196;2023-02-15T02:48:58;102645.00;;;13.90
20733;BMP180;10527;52.124;5.196;2023-02-15T02:51:27;102644.00;;;13.90
20733;BMP180;10527;52.124;5.196;2023-02-15T02:53:59;102640.00;;;13.90
20733;BMP180;10527;52.124;5.196;2023-02-15T02:56:40;102631.00;;;13.90
20733;BMP180;10527;52.124;5.196;2023-02-15T02:59:27;102630.00;;;13.90
20733;BMP180;10527;52.124;5.196;2023-02-15T03:02:16;102632.00;;;13.90
20733;BMP180;10527;52.124;5.196;2023-02-15T03:04:54;102630.00;;;13.90
20733;BMP180;10527;52.124;5.196;2023-02-15T03:07:28;102632.00;;;13.90
20733;BMP180;10527;52.124;5.196;2023-02-15T03:09:58;102623.00;;;13.90
20733;BMP180;10527;52.124;5.196;2023-02-15T03:12:34;102628.00;;;13.80
20733;BMP180;10527;52.124;5.196;2023-02-15T03:17:45;102617.00;;;13.80
20733;BMP180;10527;52.124;5.196;2023-02-15T03:20:37;102614.00;;;13.80
20733;BMP180;10527;52.124;5.196;2023-02-15T03:23:13;102607.00;;;13.80
20733;BMP180;10527;52.124;5.196;2023-02-15T03:25:46;102611.00;;;13.80
20733;BMP180;10527;52.124;5.196;2023-02-15T03:28:27;102610.00;;;13.80
20733;BMP180;10527;52.124;5.196;2023-02-15T03:31:03;102596.00;;;13.80
20733;BMP180;10527;52.124;5.196;2023-02-15T03:33:32;102594.00;;;13.70
20733;BMP180;10527;52.124;5.196;2023-02-15T03:36:23;102604.00;;;13.80
20733;BMP180;10527;52.124;5.196;2023-02-15T03:39:15;102590.00;;;13.70
20733;BMP180;10527;52.124;5.196;2023-02-15T03:44:30;102603.00;;;13.70
20733;BMP180;10527;52.124;5.196;2023-02-15T03:47:08;102594.00;;;13.70
20733;BMP180;10527;52.124;5.196;2023-02-15T03:49:53;102590.00;;;13.70
20733;BMP180;10527;52.124;5.196;2023-02-15T03:52:25;102589.00;;;13.70
20733;BMP180;10527;52.124;5.196;2023-02-15T03:54:53;102592.00;;;13.70
20733;BMP180;10527;52.124;5.196;2023-02-15T03:57:28;102592.00;;;13.70
20733;BMP180;10527;52.124;5.196;2023-02-15T04:00:27;102595.00;;;13.60
20733;BMP180;10527;52.124;5.196;2023-02-15T04:03:40;102587.00;;;13.60
20733;BMP180;10527;52.124;5.196;2023-02-15T04:06:09;102584.00;;;13.60
20733;BMP180;10527;52.124;5.196;2023-02-15T04:08:36;102583.00;;;13.50
20733;BMP180;10527;52.124;5.196;2023-02-15T04:11:31;102581.00;;;13.50
20733;BMP180;10527;52.124;5.196;2023-02-15T04:13:58;102582.00;;;13.50
20733;BMP180;10527;52.124;5.196;2023-02-15T04:16:25;102582.00;;;13.50
20733;BMP180;10527;52.124;5.196;2023-02-15T04:18:52;102588.00;;;13.50
20733;BMP180;10527;52.124;5.196;2023-02-15T04:21:37;102585.00;;;13.50
20733;BMP180;10527;52.124;5.196;2023-02-15T04:24:25;102585.00;;;13.50
20733;BMP180;10527;52.124;5.196;2023-02-15T04:27:11;102579.00;;;13.50
20733;BMP180;10527;52.124;5.196;2023-02-15T04:29:37;102574.00;;;13.40
20733;BMP180;10527;52.124;5.196;2023-02-15T04:32:07;102571.00;;;13.40
20733;BMP180;10527;52.124;5.196;2023-02-15T04:34:34;102568.00;;;13.40
20733;BMP180;10527;52.124;5.196;2023-02-15T04:37:00;102571.00;;;13.40
20733;BMP180;10527;52.124;5.196;2023-02-15T04:39:30;102567.00;;;13.50
20733;BMP180;10527;52.124;5.196;2023-02-15T04:42:00;102552.00;;;13.40
20733;BMP180;10527;52.124;5.196;2023-02-15T04:44:27;102554.00;;;13.40
20733;BMP180;10527;52.124;5.196;2023-02-15T04:46:54;102553.00;;;13.40
20733;BMP180;10527;52.124;5.196;2023-02-15T04:49:21;102555.00;;;13.40
20733;BMP180;10527;52.124;5.196;2023-02-15T04:51:48;102546.00;;;13.40
20733;BMP180;10527;52.124;5.196;2023-02-15T04:54:17;102542.00;;;13.30
20733;BMP180;10527;52.124;5.196;2023-02-15T04:56:44;102540.00;;;13.30
20733;BMP180;10527;52.124;5.196;2023-02-15T04:59:12;102549.00;;;13.30
20733;BMP180;10527;52.124;5.196;2023-02-15T05:01:38;102545.00;;;13.30
20733;BMP180;10527;52.124;5.196;2023-02-15T05:04:08;102542.00;;;13.30
20733;BMP180;10527;52.124;5.196;2023-02-15T05:06:35;102552.00;;;13.30
20733;BMP180;10527;52.124;5.196;2023-02-15T05:09:02;102547.00;;;13.30
20733;BMP180;10527;52.124;5.196;2023-02-15T05:11:29;102554.00;;;13.30
20733;BMP180;10527;52.124;5.196;2023-02-15T05:13:56;102548.00;;;13.30
20733;BMP180;10527;52.124;5.196;2023-02-15T05:16:23;102545.00;;;13.30
20733;BMP180;10527;52.124;5.196;2023-02-15T05:18:50;102540.00;;;13.30
20733;BMP180;10527;52.124;5.196;2023-02-15T05:21:20;102548.00;;;13.30
20733;BMP180;10527;52.124;5.196;2023-02-15T05:23:47;102540.00;;;13.30
20733;BMP180;10527;52.124;5.196;2023-02-15T05:26:20;102540.00;;;13.30
20733;BMP180;10527;52.124;5.196;2023-02-15T05:29:07;102542.00;;;13.30
20733;BMP180;10527;52.124;5.196;2023-02-15T05:31:34;102546.00;;;13.30
20733;BMP180;10527;52.124;5.196;2023-02-15T05:34:03;102533.00;;;13.30
20733;BMP180;10527;52.124;5.196;2023-02-15T05:36:32;102533.00;;;13.30
20733;BMP180;10527;52.124;5.196;2023-02-15T05:38:59;102537.00;;;13.30
20733;BMP180;10527;52.124;5.196;2023-02-15T05:41:26;102534.00;;;13.20
20733;BMP180;10527;52.124;5.196;2023-02-15T05:43:55;102541.00;;;13.20
20733;BMP180;10527;52.124;5.196;2023-02-15T05:46:26;102540.00;;;13.30
20733;BMP180;10527;52.124;5.196;2023-02-15T05:48:55;102537.00;;;13.20
20733;BMP180;10527;52.124;5.196;2023-02-15T05:51:22;102531.00;;;13.20
20733;BMP180;10527;52.124;5.196;2023-02-15T05:53:48;102538.00;;;13.20
20733;BMP180;10527;52.124;5.196;2023-02-15T05:56:15;102550.00;;;13.20
20733;BMP180;10527;52.124;5.196;2023-02-15T05:58:42;102549.00;;;13.20
20733;BMP180;10527;52.124;5.196;2023-02-15T06:01:22;102540.00;;;13.20
20733;BMP180;10527;52.124;5.196;2023-02-15T06:03:49;102529.00;;;13.20
20733;BMP180;10527;52.124;5.196;2023-02-15T06:06:16;102526.00;;;13.20
20733;BMP180;10527;52.124;5.196;2023-02-15T06:08:43;102527.00;;;13.20
20733;BMP180;10527;52.124;5.196;2023-02-15T06:11:10;102528.00;;;13.20
20733;BMP180;10527;52.124;5.196;2023-02-15T06:13:40;102522.00;;;13.20
20733;BMP180;10527;52.124;5.196;2023-02-15T06:16:07;102532.00;;;13.10
20733;BMP180;10527;52.124;5.196;2023-02-15T06:18:37;102523.00;;;13.10
20733;BMP180;10527;52.124;5.196;2023-02-15T06:21:04;102515.00;;;13.10
20733;BMP180;10527;52.124;5.196;2023-02-15T06:23:30;102518.00;;;13.10
20733;BMP180;10527;52.124;5.196;2023-02-15T06:25:59;102529.00;;;13.10
20733;BMP180;10527;52.124;5.196;2023-02-15T06:28:34;102522.00;;;13.10
20733;BMP180;10527;52.124;5.196;2023-02-15T06:31:00;102520.00;;;13.10
20733;BMP180;10527;52.124;5.196;2023-02-15T06:33:28;102515.00;;;13.10
20733;BMP180;10527;52.124;5.196;2023-02-15T06:35:57;102527.00;;;13.10
20733;BMP180;10527;52.124;5.196;2023-02-15T06:38:24;102522.00;;;13.10
20733;BMP180;10527;52.124;5.196;2023-02-15T06:40:52;102515.00;;;13.10
20733;BMP180;10527;52.124;5.196;2023-02-15T06:43:27;102524.00;;;13.10
20733;BMP180;10527;52.124;5.196;2023-02-15T06:45:57;102521.00;;;13.10
20733;BMP180;10527;52.124;5.196;2023-02-15T06:48:28;102520.00;;;13.00
20733;BMP180;10527;52.124;5.196;2023-02-15T06:50:54;102517.00;;;13.00
20733;BMP180;10527;52.124;5.196;2023-02-15T06:53:21;102514.00;;;13.00
20733;BMP180;10527;52.124;5.196;2023-02-15T06:55:48;102525.00;;;13.00
20733;BMP180;10527;52.124;5.196;2023-02-15T06:58:22;102526.00;;;13.00
20733;BMP180;10527;52.124;5.196;2023-02-15T07:00:49;102516.00;;;13.00
20733;BMP180;10527;52.124;5.196;2023-02-15T07:03:19;102514.00;;;13.00
20733;BMP180;10527;52.124;5.196;2023-02-15T07:05:46;102527.00;;;13.00
20733;BMP180;10527;52.124;5.196;2023-02-15T07:08:15;102523.00;;;13.00
20733;BMP180;10527;52.124;5.196;2023-02-15T07:10:50;102523.00;;;13.00
20733;BMP180;10527;52.124;5.196;2023-02-15T07:13:26;102527.00;;;13.10
20733;BMP180;10527;52.124;5.196;2023-02-15T07:15:53;102520.00;;;13.00
20733;BMP180;10527;52.124;5.196;2023-02-15T07:18:20;102525.00;;;13.00
20733;BMP180;10527;52.124;5.196;2023-02-15T07:20:49;102514.00;;;13.00
20733;BMP180;10527;52.124;5.196;2023-02-15T07:23:16;102517.00;;;13.00
20733;BMP180;10527;52.124;5.196;2023-02-15T07:25:43;102513.00;;;13.00
20733;BMP180;10527;52.124;5.196;2023-02-15T07:28:09;102514.00;;;13.10
20733;BMP180;10527;52.124;5.196;2023-02-15T07:30:39;102500.00;;;13.10
20733;BMP180;10527;52.124;5.196;2023-02-15T07:33:06;102504.00;;;13.10
20733;BMP180;10527;52.124;5.196;2023-02-15T07:35:56;102505.00;;;13.10
20733;BMP180;10527;52.124;5.196;2023-02-15T07:38:35;102497.00;;;13.10
20733;BMP180;10527;52.124;5.196;2023-02-15T07:41:07;102491.00;;;13.10
20733;BMP180;10527;52.124;5.196;2023-02-15T07:43:40;102490.00;;;13.10
20733;BMP180;10527;52.124;5.196;2023-02-15T07:46:11;102487.00;;;13.10
20733;BMP180;10527;52.124;5.196;2023-02-15T07:48:39;102477.00;;;13.10
20733;BMP180;10527;52.124;5.196;2023-02-15T07:51:09;102472.00;;;13.10
20733;BMP180;10527;52.124;5.196;2023-02-15T07:53:40;102479.00;;;13.20
20733;BMP180;10527;52.124;5.196;2023-02-15T07:56:12;102476.00;;;13.20
20733;BMP180;10527;52.124;5.196;2023-02-15T07:58:39;102482.00;;;13.20
20733;BMP180;10527;52.124;5.196;2023-02-15T08:01:26;102474.00;;;13.20
20733;BMP180;10527;52.124;5.196;2023-02-15T08:03:54;102474.00;;;13.20
20733;BMP180;10527;52.124;5.196;2023-02-15T08:06:25;102480.00;;;13.20
20733;BMP180;10527;52.124;5.196;2023-02-15T08:08:52;102475.00;;;13.30
20733;BMP180;10527;52.124;5.196;2023-02-15T08:11:29;102472.00;;;13.30
20733;BMP180;10527;52.124;5.196;2023-02-15T08:14:10;102474.00;;;13.30
20733;BMP180;10527;52.124;5.196;2023-02-15T08:16:51;102464.00;;;13.30
20733;BMP180;10527;52.124;5.196;2023-02-15T08:19:31;102469.00;;;13.40
20733;BMP180;10527;52.124;5.196;2023-02-15T08:22:05;102474.00;;;13.40
20733;BMP180;10527;52.124;5.196;2023-02-15T08:24:38;102466.00;;;13.40
20733;BMP180;10527;52.124;5.196;2023-02-15T08:27:12;102478.00;;;13.40
20733;BMP180;10527;52.124;5.196;2023-02-15T08:29:39;102469.00;;;13.50
20733;BMP180;10527;52.124;5.196;2023-02-15T08:32:17;102473.00;;;13.50
20733;BMP180;10527;52.124;5.196;2023-02-15T08:34:45;102467.00;;;13.50
20733;BMP180;10527;52.124;5.196;2023-02-15T08:37:12;102460.00;;;13.50
20733;BMP180;10527;52.124;5.196;2023-02-15T08:39:38;102460.00;;;13.60
20733;BMP180;10527;52.124;5.196;2023-02-15T08:42:08;102460.00;;;13.60
20733;BMP180;10527;52.124;5.196;2023-02-15T08:44:34;102450.00;;;13.70
20733;BMP180;10527;52.124;5.196;2023-02-15T08:47:01;102454.00;;;13.70
20733;BMP180;10527;52.124;5.196;2023-02-15T08:49:30;102463.00;;;13.70
20733;BMP180;10527;52.124;5.196;2023-02-15T08:51:57;102451.00;;;13.80
20733;BMP180;10527;52.124;5.196;2023-02-15T08:54:27;102447.00;;;13.80
20733;BMP180;10527;52.124;5.196;2023-02-15T08:56:54;102451.00;;;13.90
20733;BMP180;10527;52.124;5.196;2023-02-15T08:59:24;102450.00;;;13.90
20733;BMP180;10527;52.124;5.196;2023-02-15T09:01:56;102447.00;;;14.00
20733;BMP180;10527;52.124;5.196;2023-02-15T09:04:26;102451.00;;;14.00
20733;BMP180;10527;52.124;5.196;2023-02-15T09:06:53;102456.00;;;14.00
20733;BMP180;10527;52.124;5.196;2023-02-15T09:09:21;102449.00;;;14.10
20733;BMP180;10527;52.124;5.196;2023-02-15T09:11:51;102450.00;;;14.10
20733;BMP180;10527;52.124;5.196;2023-02-15T09:14:26;102451.00;;;14.20
20733;BMP180;10527;52.124;5.196;2023-02-15T09:16:54;102446.00;;;14.20
20733;BMP180;10527;52.124;5.196;2023-02-15T09:19:22;102434.00;;;14.30
20733;BMP180;10527;52.124;5.196;2023-02-15T09:21:52;102437.00;;;14.30
20733;BMP180;10527;52.124;5.196;2023-02-15T09:24:19;102437.00;;;14.40
20733;BMP180;10527;52.124;5.196;2023-02-15T09:26:49;102437.00;;;14.40
20733;BMP180;10527;52.124;5.196;2023-02-15T09:29:19;102436.00;;;14.50
20733;BMP180;10527;52.124;5.196;2023-02-15T09:31:49;102426.00;;;14.50
20733;BMP180;10527;52.124;5.196;2023-02-15T09:34:20;102432.00;;;14.60
20733;BMP180;10527;52.124;5.196;2023-02-15T09:36:48;102435.00;;;14.70
20733;BMP180;10527;52.124;5.196;2023-02-15T09:39:25;102447.00;;;14.90
20733;BMP180;10527;52.124;5.196;2023-02-15T09:45:06;102431.00;;;15.20
20733;BMP180;10527;52.124;5.196;2023-02-15T09:56:47;102445.00;;;16.40
20733;BMP180;10527;52.124;5.196;2023-02-15T09:59:38;102450.00;;;16.70
20733;BMP180;10527;52.124;5.196;2023-02-15T10:11:55;102446.00;;;17.30
20733;BMP180;10527;52.124;5.196;2023-02-15T10:17:40;102456.00;;;17.50
20733;BMP180;10527;52.124;5.196;2023-02-15T10:20:46;102462.00;;;17.70
20733;BMP180;10527;52.124;5.196;2023-02-15T10:26:46;102457.00;;;18.10
20733;BMP180;10527;52.124;5.196;2023-02-15T10:29:35;102456.00;;;18.20
20733;BMP180;10527;52.124;5.196;2023-02-15T10:32:26;102466.00;;;18.40
20733;BMP180;10527;52.124;5.196;2023-02-15T10:38:10;102463.00;;;18.60
20733;BMP180;10527;52.124;5.196;2023-02-15T10:50:03;102456.00;;;19.00
20733;BMP180;10527;52.124;5.196;2023-02-15T10:53:41;102464.00;;;19.10
20733;BMP180;10527;52.124;5.196;2023-02-15T10:57:17;102457.00;;;19.20
20733;BMP180;10527;52.124;5.196;2023-02-15T11:06:18;102439.00;;;19.00
20733;BMP180;10527;52.124;5.196;2023-02-15T11:08:59;102428.00;;;19.00
20733;BMP180;10527;52.124;5.196;2023-02-15T11:11:38;102422.00;;;18.90
20733;BMP180;10527;52.124;5.196;2023-02-15T11:14:40;102406.00;;;18.80
20733;BMP180;10527;52.124;5.196;2023-02-15T11:17:16;102414.00;;;18.70
20733;BMP180;10527;52.124;5.196;2023-02-15T11:20:29;102409.00;;;18.60
20733;BMP180;10527;52.124;5.196;2023-02-15T11:23:00;102415.00;;;18.60
20733;BMP180;10527;52.124;5.196;2023-02-15T11:25:35;102405.00;;;18.50
20733;BMP180;10527;52.124;5.196;2023-02-15T11:28:20;102408.00;;;18.50
20733;BMP180;10527;52.124;5.196;2023-02-15T11:30:55;102400.00;;;18.50
20733;BMP180;10527;52.124;5.196;2023-02-15T11:33:35;102396.00;;;18.50
20733;BMP180;10527;52.124;5.196;2023-02-15T11:36:14;102395.00;;;18.50
20733;BMP180;10527;52.124;5.196;2023-02-15T11:38:52;102384.00;;;18.60
20733;BMP180;10527;52.124;5.196;2023-02-15T11:41:29;102378.00;;;18.60
20733;BMP180;10527;52.124;5.196;2023-02-15T11:44:14;102369.00;;;18.60
20733;BMP180;10527;52.124;5.196;2023-02-15T11:46:42;102359.00;;;18.60
20733;BMP180;10527;52.124;5.196;2023-02-15T11:49:30;102361.00;;;18.70
20733;BMP180;10527;52.124;5.196;2023-02-15T11:52:00;102350.00;;;18.70
20733;BMP180;10527;52.124;5.196;2023-02-15T11:54:32;102341.00;;;18.80
20733;BMP180;10527;52.124;5.196;2023-02-15T11:57:15;102344.00;;;18.90
20733;BMP180;10527;52.124;5.196;2023-02-15T11:59:56;102340.00;;;19.00
20733;BMP180;10527;52.124;5.196;2023-02-15T12:02:25;102328.00;;;19.00
20733;BMP180;10527;52.124;5.196;2023-02-15T12:05:03;102332.00;;;19.10
20733;BMP180;10527;52.124;5.196;2023-02-15T12:07:43;102353.00;;;19.20
20733;BMP180;10527;52.124;5.196;2023-02-15T12:10:26;102360.00;;;19.30
20733;BMP180;10527;52.124;5.196;2023-02-15T12:13:17;102343.00;;;19.30
20733;BMP180;10527;52.124;5.196;2023-02-15T12:15:48;102339.00;;;19.30
20733;BMP180;10527;52.124;5.196;2023-02-15T12:18:38;102346.00;;;19.40
20733;BMP180;10527;52.124;5.196;2023-02-15T12:21:31;102347.00;;;19.40
20733;BMP180;10527;52.124;5.196;2023-02-15T12:24:34;102344.00;;;19.50
20733;BMP180;10527;52.124;5.196;2023-02-15T12:27:15;102328.00;;;19.60
20733;BMP180;10527;52.124;5.196;2023-02-15T12:29:49;102319.00;;;19.70
20733;BMP180;10527;52.124;5.196;2023-02-15T12:32:33;102316.00;;;19.80
20733;BMP180;10527;52.124;5.196;2023-02-15T12:35:17;102306.00;;;19.90
20733;BMP180;10527;52.124;5.196;2023-02-15T12:40:37;102316.00;;;20.00
20733;BMP180;10527;52.124;5.196;2023-02-15T12:43:04;102303.00;;;20.00
20733;BMP180;10527;52.124;5.196;2023-02-15T12:45:37;102318.00;;;20.10
20733;BMP180;10527;52.124;5.196;2023-02-15T12:48:18;102320.00;;;20.20
20733;BMP180;10527;52.124;5.196;2023-02-15T12:50:51;102322.00;;;20.30
20733;BMP180;10527;52.124;5.196;2023-02-15T12:53:31;102329.00;;;20.40
20733;BMP180;10527;52.124;5.196;2023-02-15T12:56:05;102307.00;;;20.50
20733;BMP180;10527;52.124;5.196;2023-02-15T12:58:40;102308.00;;;20.50
20733;BMP180;10527;52.124;5.196;2023-02-15T13:01:19;102308.00;;;20.60
20733;BMP180;10527;52.124;5.196;2023-02-15T13:04:05;102311.00;;;20.60
20733;BMP180;10527;52.124;5.196;2023-02-15T13:06:35;102311.00;;;20.50
20733;BMP180;10527;52.124;5.196;2023-02-15T13:12:23;102313.00;;;20.60
20733;BMP180;10527;52.124;5.196;2023-02-15T13:14:54;102308.00;;;20.60
20733;BMP180;10527;52.124;5.196;2023-02-15T13:17:30;102300.00;;;20.70
20733;BMP180;10527;52.124;5.196;2023-02-15T13:20:20;102299.00;;;20.70
20733;BMP180;10527;52.124;5.196;2023-02-15T13:23:02;102290.00;;;20.70
20733;BMP180;10527;52.124;5.196;2023-02-15T13:25:46;102283.00;;;20.70
20733;BMP180;10527;52.124;5.196;2023-02-15T13:28:20;102289.00;;;20.80
20733;BMP180;10527;52.124;5.196;2023-02-15T13:30:58;102294.00;;;20.80
20733;BMP180;10527;52.124;5.196;2023-02-15T13:33:33;102283.00;;;20.80
20733;BMP180;10527;52.124;5.196;2023-02-15T13:36:12;102285.00;;;20.90
20733;BMP180;10527;52.124;5.196;2023-02-15T13:42:25;102284.00;;;20.90
20733;BMP180;10527;52.124;5.196;2023-02-15T13:51:29;102291.00;;;21.00
20733;BMP180;10527;52.124;5.196;2023-02-15T13:54:29;102276.00;;;21.00
20733;BMP180;10527;52.124;5.196;2023-02-15T14:08:22;102282.00;;;21.10
20733;BMP180;10527;52.124;5.196;2023-02-15T14:11:03;102265.00;;;21.10
20733;BMP180;10527;52.124;5.196;2023-02-15T14:17:24;102268.00;;;21.10
20733;BMP180;10527;52.124;5.196;2023-02-15T14:20:24;102269.00;;;21.10
20733;BMP180;10527;52.124;5.196;2023-02-15T14:26:22;102261.00;;;21.20
20733;BMP180;10527;52.124;5.196;2023-02-15T14:29:23;102259.00;;;21.20
20733;BMP180;10527;52.124;5.196;2023-02-15T14:32:04;102260.00;;;21.20
20733;BMP180;10527;52.124;5.196;2023-02-15T14:34:57;102252.00;;;21.20
20733;BMP180;10527;52.124;5.196;2023-02-15T14:43:37;102269.00;;;21.20
20733;BMP180;10527;52.124;5.196;2023-02-15T14:49:21;102254.00;;;21.20
20733;BMP180;10527;52.124;5.196;2023-02-15T14:56:46;102264.00;;;21.20
20733;BMP180;10527;52.124;5.196;2023-02-15T14:59:23;102270.00;;;21.30
20733;BMP180;10527;52.124;5.196;2023-02-15T15:02:22;102262.00;;;21.30
20733;BMP180;10527;52.124;5.196;2023-02-15T15:05:22;102256.00;;;21.30
20733;BMP180;10527;52.124;5.196;2023-02-15T15:07:54;102260.00;;;21.30
20733;BMP180;10527;52.124;5.196;2023-02-15T15:10:46;102269.00;;;21.20
20733;BMP180;10527;52.124;5.196;2023-02-15T15:16:31;102265.00;;;21.20
20733;BMP180;10527;52.124;5.196;2023-02-15T15:22:32;102264.00;;;21.20
20733;BMP180;10527;52.124;5.196;2023-02-15T15:25:03;102259.00;;;21.20
20733;BMP180;10527;52.124;5.196;2023-02-15T15:27:52;102259.00;;;21.20
20733;BMP180;10527;52.124;5.196;2023-02-15T15:36:12;102255.00;;;21.10
20733;BMP180;10527;52.124;5.196;2023-02-15T15:50:43;102244.00;;;20.90
20733;BMP180;10527;52.124;5.196;2023-02-15T15:53:22;102247.00;;;20.80
20733;BMP180;10527;52.124;5.196;2023-02-15T15:55:56;102237.00;;;20.80
20733;BMP180;10527;52.124;5.196;2023-02-15T15:58:25;102243.00;;;20.80
20733;BMP180;10527;52.124;5.196;2023-02-15T16:01:08;102248.00;;;20.80
20733;BMP180;10527;52.124;5.196;2023-02-15T16:03:36;102240.00;;;20.80
20733;BMP180;10527;52.124;5.196;2023-02-15T16:06:03;102242.00;;;20.80
20733;BMP180;10527;52.124;5.196;2023-02-15T16:08:34;102243.00;;;20.80
20733;BMP180;10527;52.124;5.196;2023-02-15T16:11:17;102232.00;;;20.80
20733;BMP180;10527;52.124;5.196;2023-02-15T16:13:46;102237.00;;;20.70
20733;BMP180;10527;52.124;5.196;2023-02-15T16:16:22;102246.00;;;20.70
20733;BMP180;10527;52.124;5.196;2023-02-15T16:18:51;102244.00;;;20.70
20733;BMP180;10527;52.124;5.196;2023-02-15T16:21:23;102248.00;;;20.70
20733;BMP180;10527;52.124;5.196;2023-02-15T16:24:24;102241.00;;;20.70
20733;BMP180;10527;52.124;5.196;2023-02-15T16:30:27;102250.00;;;20.60
20733;BMP180;10527;52.124;5.196;2023-02-15T16:33:14;102250.00;;;20.60
20733;BMP180;10527;52.124;5.196;2023-02-15T16:35:58;102249.00;;;20.60
20733;BMP180;10527;52.124;5.196;2023-02-15T16:41:27;102239.00;;;20.50
20733;BMP180;10527;52.124;5.196;2023-02-15T16:44:04;102235.00;;;20.50
20733;BMP180;10527;52.124;5.196;2023-02-15T16:46:38;102237.00;;;20.50
20733;BMP180;10527;52.124;5.196;2023-02-15T16:49:23;102234.00;;;20.50
20733;BMP180;10527;52.124;5.196;2023-02-15T16:52:01;102227.00;;;20.40
20733;BMP180;10527;52.124;5.196;2023-02-15T16:54:31;102228.00;;;20.40
20733;BMP180;10527;52.124;5.196;2023-02-15T16:56:58;102223.00;;;20.40
20733;BMP180;10527;52.124;5.196;2023-02-15T16:59:48;102229.00;;;20.40
20733;BMP180;10527;52.124;5.196;2023-02-15T17:02:25;102223.00;;;20.30
20733;BMP180;10527;52.124;5.196;2023-02-15T17:05:18;102224.00;;;20.30
20733;BMP180;10527;52.124;5.196;2023-02-15T17:08:16;102222.00;;;20.30
20733;BMP180;10527;52.124;5.196;2023-02-15T17:11:05;102220.00;;;20.30
20733;BMP180;10527;52.124;5.196;2023-02-15T17:13:32;102220.00;;;20.30